createdAt,value
2022-11-12T00:00:25.503Z,4.00
2022-11-12T00:00:56.254Z,4.00
2022-11-12T00:01:28.138Z,4.00
2022-11-12T00:01:57.961Z,4.00
2022-11-12T00:02:29.432Z,4.00
2022-11-12T00:03:00.116Z,4.00
2022-11-12T00:03:30.977Z,4.00
2022-11-12T00:04:02.057Z,4.00
2022-11-12T00:04:33.159Z,4.00
2022-11-12T00:05:04.030Z,4.00
2022-11-12T00:05:34.987Z,4.00
2022-11-12T00:06:06.221Z,4.00
2022-11-12T00:06:38.139Z,4.00
2022-11-12T00:07:08.443Z,4.00
2022-11-12T00:07:38.931Z,4.00
2022-11-12T00:08:10.179Z,4.00
2022-11-12T00:08:41.235Z,4.00
2022-11-12T00:09:12.234Z,4.00
2022-11-12T00:09:43.178Z,4.00
2022-11-12T00:10:14.165Z,3.88
2022-11-12T00:10:45.203Z,3.88
2022-11-12T00:11:16.338Z,3.88
2022-11-12T00:11:48.115Z,3.88
2022-11-12T00:12:18.058Z,3.88
2022-11-12T00:12:49.195Z,3.88
2022-11-12T00:13:20.091Z,3.88
2022-11-12T00:13:51.256Z,3.88
2022-11-12T00:14:22.187Z,3.88
2022-11-12T00:14:53.209Z,3.88
2022-11-12T00:15:24.283Z,3.88
2022-11-12T00:15:55.304Z,3.88
2022-11-12T00:16:26.314Z,3.88
2022-11-12T00:16:58.089Z,3.88
2022-11-12T00:17:28.098Z,3.88
2022-11-12T00:17:59.294Z,3.88
2022-11-12T00:18:30.227Z,3.88
2022-11-12T00:19:01.165Z,3.88
2022-11-12T00:19:32.163Z,3.88
2022-11-12T00:20:03.980Z,3.88
2022-11-12T00:20:34.189Z,3.88
2022-11-12T00:21:05.162Z,3.88
2022-11-12T00:21:36.090Z,3.88
2022-11-12T00:22:38.254Z,3.88
2022-11-12T00:23:09.182Z,3.88
2022-11-12T00:23:40.555Z,3.88
2022-11-12T00:24:11.146Z,3.88
2022-11-12T00:24:42.179Z,3.88
2022-11-12T00:25:13.221Z,3.88
2022-11-12T00:25:44.441Z,3.88
2022-11-12T00:26:15.091Z,3.88
2022-11-12T00:26:46.003Z,3.88
2022-11-12T00:27:17.955Z,3.88
2022-11-12T00:27:47.991Z,3.88
2022-11-12T00:28:19.411Z,3.88
2022-11-12T00:28:50.238Z,3.88
2022-11-12T00:29:21.273Z,3.88
2022-11-12T00:29:52.163Z,3.77
2022-11-12T00:30:23.436Z,3.77
2022-11-12T00:30:54.130Z,3.77
2022-11-12T00:31:25.047Z,3.77
2022-11-12T00:31:56.064Z,3.77
2022-11-12T00:32:28.003Z,3.77
2022-11-12T00:32:58.280Z,3.77
2022-11-12T00:33:29.132Z,3.77
2022-11-12T00:34:00.222Z,3.77
2022-11-12T00:34:31.111Z,3.77
2022-11-12T00:35:02.922Z,3.77
2022-11-12T00:35:33.150Z,3.77
2022-11-12T00:36:04.146Z,3.77
2022-11-12T00:36:35.158Z,3.77
2022-11-12T00:37:06.286Z,3.77
2022-11-12T00:37:38.171Z,3.77
2022-11-12T00:38:08.067Z,3.77
2022-11-12T00:38:39.155Z,3.77
2022-11-12T00:39:10.164Z,3.77
2022-11-12T00:39:41.361Z,3.77
2022-11-12T00:40:12.247Z,3.77
2022-11-12T00:40:43.108Z,3.77
2022-11-12T00:41:14.451Z,3.77
2022-11-12T00:41:45.246Z,3.77
2022-11-12T00:42:16.111Z,3.77
2022-11-12T00:42:48.108Z,3.77
2022-11-12T00:43:18.078Z,3.77
2022-11-12T00:43:48.936Z,3.77
2022-11-12T00:44:20.230Z,3.77
2022-11-12T00:44:51.282Z,3.77
2022-11-12T00:45:22.222Z,3.77
2022-11-12T00:45:53.190Z,3.77
2022-11-12T00:46:24.042Z,3.77
2022-11-12T00:46:55.249Z,3.77
2022-11-12T00:47:26.375Z,3.77
2022-11-12T00:47:58.012Z,3.77
2022-11-12T00:48:28.495Z,3.77
2022-11-12T00:48:59.203Z,3.77
2022-11-12T00:49:30.257Z,3.77
2022-11-12T00:50:01.092Z,3.77
2022-11-12T00:50:32.166Z,3.77
2022-11-12T00:51:03.140Z,3.77
2022-11-12T00:51:34.248Z,3.77
2022-11-12T00:52:05.266Z,3.77
2022-11-12T00:52:36.046Z,3.77
2022-11-12T00:53:38.260Z,3.77
2022-11-12T00:54:09.238Z,3.77
2022-11-12T00:54:40.293Z,3.77
2022-11-12T00:55:11.488Z,3.77
2022-11-12T00:55:42.216Z,3.77
2022-11-12T00:56:13.167Z,3.77
2022-11-12T00:56:44.211Z,3.77
2022-11-12T00:57:15.215Z,3.77
2022-11-12T00:57:46.018Z,3.77
2022-11-12T00:58:18.136Z,3.77
2022-11-12T00:58:48.142Z,3.72
2022-11-12T00:59:18.962Z,3.72
2022-11-12T00:59:50.447Z,3.72
2022-11-12T01:00:24.106Z,3.72
2022-11-12T01:00:52.311Z,3.72
2022-11-12T01:01:23.266Z,3.72
2022-11-12T01:01:53.955Z,3.72
2022-11-12T01:02:25.316Z,3.72
2022-11-12T01:02:56.221Z,3.72
2022-11-12T01:03:28.639Z,3.72
2022-11-12T01:03:58.279Z,3.72
2022-11-12T01:04:29.224Z,3.72
2022-11-12T01:05:00.239Z,3.72
2022-11-12T01:05:31.218Z,3.72
2022-11-12T01:06:02.269Z,3.72
2022-11-12T01:06:34.291Z,3.72
2022-11-12T01:07:04.004Z,3.72
2022-11-12T01:07:35.024Z,3.72
2022-11-12T01:08:06.115Z,3.72
2022-11-12T01:08:38.305Z,3.72
2022-11-12T01:09:08.219Z,3.72
2022-11-12T01:09:39.047Z,3.72
2022-11-12T01:10:10.208Z,3.72
2022-11-12T01:10:41.244Z,3.72
2022-11-12T01:11:11.956Z,3.72
2022-11-12T01:11:43.153Z,3.72
2022-11-12T01:12:14.068Z,3.72
2022-11-12T01:12:45.343Z,3.72
2022-11-12T01:13:16.276Z,3.72
2022-11-12T01:13:48.203Z,3.72
2022-11-12T01:14:18.169Z,3.72
2022-11-12T01:14:49.148Z,3.72
2022-11-12T01:15:22.951Z,3.72
2022-11-12T01:15:50.988Z,3.72
2022-11-12T01:16:22.226Z,3.72
2022-11-12T01:16:53.187Z,3.72
2022-11-12T01:17:23.958Z,3.72
2022-11-12T01:17:55.255Z,3.72
2022-11-12T01:18:26.556Z,3.72
2022-11-12T01:18:58.012Z,3.72
2022-11-12T01:19:28.211Z,3.72
2022-11-12T01:19:59.203Z,3.72
2022-11-12T01:20:30.496Z,3.72
2022-11-12T01:21:01.167Z,3.72
2022-11-12T01:21:32.231Z,3.72
2022-11-12T01:22:03.231Z,3.72
2022-11-12T01:22:34.240Z,3.72
2022-11-12T01:23:05.023Z,3.72
2022-11-12T01:23:36.288Z,3.72
2022-11-12T01:24:38.201Z,3.72
2022-11-12T01:25:09.067Z,3.72
2022-11-12T01:25:40.303Z,3.72
2022-11-12T01:26:11.185Z,3.72
2022-11-12T01:26:42.331Z,3.72
2022-11-12T01:27:13.205Z,3.72
2022-11-12T01:27:44.202Z,3.72
2022-11-12T01:28:15.247Z,3.72
2022-11-12T01:28:46.245Z,3.72
2022-11-12T01:29:18.278Z,3.72
2022-11-12T01:29:48.303Z,3.61
2022-11-12T01:30:22.003Z,3.61
2022-11-12T01:30:50.256Z,3.61
2022-11-12T01:31:21.223Z,3.61
2022-11-12T01:31:52.113Z,3.61
2022-11-12T01:32:23.156Z,3.61
2022-11-12T01:32:54.022Z,3.61
2022-11-12T01:33:25.330Z,3.61
2022-11-12T01:33:56.272Z,3.61
2022-11-12T01:34:28.152Z,3.61
2022-11-12T01:34:58.365Z,3.61
2022-11-12T01:35:29.234Z,3.61
2022-11-12T01:36:00.146Z,3.61
2022-11-12T01:36:31.062Z,3.61
2022-11-12T01:37:02.242Z,3.61
2022-11-12T01:37:33.143Z,3.61
2022-11-12T01:38:04.291Z,3.61
2022-11-12T01:38:35.298Z,3.61
2022-11-12T01:39:06.129Z,3.61
2022-11-12T01:39:38.079Z,3.61
2022-11-12T01:40:08.357Z,3.61
2022-11-12T01:40:41.057Z,3.61
2022-11-12T01:41:10.390Z,3.61
2022-11-12T01:41:42.072Z,3.61
2022-11-12T01:42:13.006Z,3.61
2022-11-12T01:42:43.652Z,3.61
2022-11-12T01:43:14.494Z,3.61
2022-11-12T01:43:45.562Z,3.61
2022-11-12T01:44:16.337Z,3.61
2022-11-12T01:44:48.575Z,3.61
2022-11-12T01:45:21.728Z,3.61
2022-11-12T01:45:49.987Z,3.61
2022-11-12T01:46:20.490Z,3.61
2022-11-12T01:46:51.803Z,3.61
2022-11-12T01:47:22.318Z,3.61
2022-11-12T01:47:53.252Z,3.61
2022-11-12T01:48:24.391Z,3.61
2022-11-12T01:48:55.392Z,3.61
2022-11-12T01:49:26.800Z,3.61
2022-11-12T01:49:58.320Z,3.61
2022-11-12T01:50:29.395Z,3.61
2022-11-12T01:50:59.191Z,3.61
2022-11-12T01:51:30.398Z,3.61
2022-11-12T01:52:01.626Z,3.61
2022-11-12T01:52:32.580Z,3.61
2022-11-12T01:53:03.339Z,3.61
2022-11-12T01:53:34.366Z,3.61
2022-11-12T01:54:05.556Z,3.61
2022-11-12T01:54:36.576Z,3.61
2022-11-12T01:55:38.534Z,3.61
2022-11-12T01:56:09.276Z,3.61
2022-11-12T01:56:42.523Z,3.61
2022-11-12T01:57:12.330Z,3.61
2022-11-12T01:57:42.661Z,3.61
2022-11-12T01:58:13.211Z,3.61
2022-11-12T01:58:44.503Z,3.61
2022-11-12T01:59:15.524Z,3.61
2022-11-12T01:59:47.556Z,3.61
2022-11-12T02:00:21.559Z,3.61
2022-11-12T02:00:48.502Z,3.61
2022-11-12T02:01:20.362Z,3.61
2022-11-12T02:01:50.457Z,3.61
2022-11-12T02:02:21.254Z,3.61
2022-11-12T02:02:52.575Z,3.61
2022-11-12T02:03:24.491Z,3.61
2022-11-12T02:03:54.351Z,3.61
2022-11-12T02:04:24.969Z,3.61
2022-11-12T02:04:56.354Z,3.61
2022-11-12T02:06:10.225Z,3.61
2022-11-12T02:06:24.483Z,3.61
2022-11-12T02:06:56.054Z,3.61
2022-11-12T02:07:35.595Z,3.61
2022-11-12T02:08:03.199Z,3.61
2022-11-12T02:08:32.980Z,3.61
2022-11-12T02:09:04.289Z,3.61
2022-11-12T02:09:35.358Z,3.61
2022-11-12T02:10:06.176Z,3.61
2022-11-12T02:10:38.152Z,3.61
2022-11-12T02:11:08.389Z,3.61
2022-11-12T02:11:39.367Z,3.61
2022-11-12T02:12:11.467Z,3.61
2022-11-12T02:12:41.189Z,3.61
2022-11-12T02:13:12.247Z,3.61
2022-11-12T02:13:43.248Z,3.61
2022-11-12T02:14:14.319Z,3.61
2022-11-12T02:14:45.227Z,3.61
2022-11-12T02:15:21.267Z,3.50
2022-11-12T02:15:48.469Z,3.50
2022-11-12T02:16:18.427Z,3.50
2022-11-12T02:16:49.358Z,3.50
2022-11-12T02:17:20.307Z,3.50
2022-11-12T02:17:51.146Z,3.61
2022-11-12T02:18:22.247Z,3.61
2022-11-12T02:18:53.092Z,3.61
2022-11-12T02:19:24.323Z,3.61
2022-11-12T02:19:55.238Z,3.50
2022-11-12T02:20:26.430Z,3.50
2022-11-12T02:20:58.392Z,3.50
2022-11-12T02:21:28.387Z,3.50
2022-11-12T02:21:59.304Z,3.50
2022-11-12T02:22:30.084Z,3.50
2022-11-12T02:23:01.240Z,3.50
2022-11-12T02:23:32.207Z,3.50
2022-11-12T02:24:03.084Z,3.50
2022-11-12T02:24:34.093Z,3.50
2022-11-12T02:25:05.276Z,3.50
2022-11-12T02:25:36.076Z,3.50
2022-11-12T02:26:38.219Z,3.50
2022-11-12T02:27:09.353Z,3.50
2022-11-12T02:27:40.279Z,3.50
2022-11-12T02:28:11.212Z,3.50
2022-11-12T02:28:42.276Z,3.50
2022-11-12T02:29:13.179Z,3.50
2022-11-12T02:29:44.283Z,3.50
2022-11-12T02:30:18.044Z,3.50
2022-11-12T02:30:46.259Z,3.50
2022-11-12T02:31:18.059Z,3.38
2022-11-12T02:31:48.288Z,3.38
2022-11-12T02:32:19.339Z,3.38
2022-11-12T02:32:50.160Z,3.38
2022-11-12T02:33:21.146Z,3.38
2022-11-12T02:33:52.252Z,3.27
2022-11-12T02:34:23.324Z,3.27
2022-11-12T02:34:54.412Z,3.27
2022-11-12T02:35:25.340Z,3.27
2022-11-12T02:35:56.279Z,3.27
2022-11-12T02:36:28.131Z,3.27
2022-11-12T02:36:58.449Z,3.27
2022-11-12T02:37:29.277Z,3.27
2022-11-12T02:38:00.250Z,3.27
2022-11-12T02:38:31.377Z,3.27
2022-11-12T02:39:02.320Z,3.27
2022-11-12T02:39:33.269Z,3.27
2022-11-12T02:40:03.992Z,3.27
2022-11-12T02:40:35.302Z,3.27
2022-11-12T02:41:06.160Z,3.27
2022-11-12T02:41:38.171Z,3.27
2022-11-12T02:42:08.438Z,3.27
2022-11-12T02:42:39.031Z,3.27
2022-11-12T02:43:10.223Z,3.27
2022-11-12T02:43:41.138Z,3.27
2022-11-12T02:44:12.336Z,3.27
2022-11-12T02:44:43.286Z,3.27
2022-11-12T02:45:17.057Z,3.27
2022-11-12T02:45:45.322Z,3.27
2022-11-12T02:46:16.460Z,3.27
2022-11-12T02:46:48.175Z,3.38
2022-11-12T02:47:18.057Z,3.38
2022-11-12T02:47:49.317Z,3.38
2022-11-12T02:48:20.309Z,3.38
2022-11-12T02:48:51.216Z,3.38
2022-11-12T02:49:22.151Z,3.38
2022-11-12T02:49:53.102Z,3.38
2022-11-12T02:50:24.283Z,3.38
2022-11-12T02:50:55.267Z,3.38
2022-11-12T02:51:26.113Z,3.38
2022-11-12T02:51:58.406Z,3.38
2022-11-12T02:52:28.111Z,3.38
2022-11-12T02:52:59.170Z,3.38
2022-11-12T02:53:30.284Z,3.38
2022-11-12T02:54:01.015Z,3.38
2022-11-12T02:54:32.111Z,3.38
2022-11-12T02:55:03.074Z,3.38
2022-11-12T02:55:34.213Z,3.38
2022-11-12T02:56:05.180Z,3.38
2022-11-12T02:56:36.054Z,3.38
2022-11-12T02:57:38.179Z,3.38
2022-11-12T02:58:09.210Z,3.27
2022-11-12T02:58:40.209Z,3.27
2022-11-12T02:59:11.121Z,3.27
2022-11-12T02:59:42.082Z,3.27
2022-11-12T03:00:15.986Z,3.27
2022-11-12T03:00:44.366Z,3.27
2022-11-12T03:01:15.258Z,3.27
2022-11-12T03:01:46.222Z,3.27
2022-11-12T03:02:18.169Z,3.27
2022-11-12T03:02:48.316Z,3.27
2022-11-12T03:03:19.395Z,3.27
2022-11-12T03:03:50.195Z,3.27
2022-11-12T03:04:21.178Z,3.27
2022-11-12T03:04:52.164Z,3.27
2022-11-12T03:05:23.230Z,3.27
2022-11-12T03:05:54.121Z,3.27
2022-11-12T03:06:25.261Z,3.27
2022-11-12T03:06:56.225Z,3.27
2022-11-12T03:07:28.054Z,3.27
2022-11-12T03:07:58.247Z,3.27
2022-11-12T03:08:29.460Z,3.27
2022-11-12T03:09:00.193Z,3.27
2022-11-12T03:09:31.259Z,3.27
2022-11-12T03:10:02.158Z,3.27
2022-11-12T03:10:33.187Z,3.38
2022-11-12T03:11:04.248Z,3.38
2022-11-12T03:11:35.267Z,3.38
2022-11-12T03:12:06.172Z,3.38
2022-11-12T03:12:38.271Z,3.38
2022-11-12T03:13:08.501Z,3.38
2022-11-12T03:13:39.178Z,3.38
2022-11-12T03:14:10.343Z,3.38
2022-11-12T03:14:41.271Z,3.38
2022-11-12T03:15:14.888Z,3.38
2022-11-12T03:15:43.239Z,3.38
2022-11-12T03:16:14.249Z,3.38
2022-11-12T03:16:45.265Z,3.38
2022-11-12T03:17:16.099Z,3.38
2022-11-12T03:17:48.259Z,3.38
2022-11-12T03:18:18.126Z,3.38
2022-11-12T03:18:49.089Z,3.38
2022-11-12T03:19:20.263Z,3.38
2022-11-12T03:19:51.143Z,3.38
2022-11-12T03:20:22.252Z,3.27
2022-11-12T03:20:53.134Z,3.27
2022-11-12T03:21:24.146Z,3.27
2022-11-12T03:21:55.223Z,3.27
2022-11-12T03:22:26.197Z,3.27
2022-11-12T03:22:58.469Z,3.27
2022-11-12T03:23:28.343Z,3.27
2022-11-12T03:23:59.311Z,3.27
2022-11-12T03:24:30.091Z,3.27
2022-11-12T03:25:01.035Z,3.27
2022-11-12T03:25:32.181Z,3.27
2022-11-12T03:26:03.173Z,3.27
2022-11-12T03:26:35.950Z,3.27
2022-11-12T03:27:05.347Z,3.27
2022-11-12T03:27:36.226Z,3.27
2022-11-12T03:28:38.236Z,3.22
2022-11-12T03:29:09.247Z,3.22
2022-11-12T03:29:40.327Z,3.22
2022-11-12T03:30:14.229Z,3.22
2022-11-12T03:30:42.103Z,3.22
2022-11-12T03:31:13.030Z,3.22
2022-11-12T03:31:44.426Z,3.22
2022-11-12T03:32:15.217Z,3.22
2022-11-12T03:32:46.015Z,3.22
2022-11-12T03:33:18.327Z,3.11
2022-11-12T03:33:48.194Z,3.11
2022-11-12T03:34:19.283Z,3.11
2022-11-12T03:34:55.138Z,3.11
2022-11-12T03:35:21.217Z,3.11
2022-11-12T03:35:52.298Z,3.11
2022-11-12T03:36:23.207Z,3.11
2022-11-12T03:36:54.252Z,3.11
2022-11-12T03:37:25.531Z,3.11
2022-11-12T03:37:56.331Z,3.00
2022-11-12T03:38:28.459Z,3.00
2022-11-12T03:38:58.403Z,3.00
2022-11-12T03:39:29.291Z,3.00
2022-11-12T03:40:00.375Z,3.00
2022-11-12T03:40:31.010Z,3.00
2022-11-12T03:41:02.003Z,3.00
2022-11-12T03:41:33.140Z,3.00
2022-11-12T03:42:04.274Z,2.88
2022-11-12T03:42:35.230Z,2.88
2022-11-12T03:43:06.105Z,2.88
2022-11-12T03:43:38.319Z,2.88
2022-11-12T03:44:08.239Z,2.88
2022-11-12T03:44:39.138Z,2.88
2022-11-12T03:45:12.993Z,2.88
2022-11-12T03:45:41.224Z,2.88
2022-11-12T03:46:12.127Z,2.88
2022-11-12T03:46:44.464Z,2.77
2022-11-12T03:47:14.387Z,2.77
2022-11-12T03:47:45.186Z,2.77
2022-11-12T03:48:16.000Z,2.77
2022-11-12T03:48:48.335Z,2.77
2022-11-12T03:49:18.109Z,2.77
2022-11-12T03:49:49.163Z,2.77
2022-11-12T03:50:20.047Z,2.77
2022-11-12T03:50:51.103Z,2.77
2022-11-12T03:51:22.206Z,2.77
2022-11-12T03:51:53.295Z,2.77
2022-11-12T03:52:24.347Z,2.77
2022-11-12T03:52:55.314Z,2.77
2022-11-12T03:53:26.282Z,2.77
2022-11-12T03:53:58.435Z,2.77
2022-11-12T03:54:28.472Z,2.77
2022-11-12T03:54:59.457Z,2.77
2022-11-12T03:55:30.222Z,2.77
2022-11-12T03:56:00.890Z,2.77
2022-11-12T03:56:32.131Z,2.77
2022-11-12T03:57:03.305Z,2.77
2022-11-12T03:57:34.065Z,2.77
2022-11-12T03:58:05.341Z,2.77
2022-11-12T03:58:36.087Z,2.77
2022-11-12T03:59:38.108Z,2.77
2022-11-12T04:00:12.064Z,2.72
2022-11-12T04:00:40.409Z,2.72
2022-11-12T04:01:11.386Z,2.72
2022-11-12T04:01:42.210Z,2.72
2022-11-12T04:02:13.036Z,2.72
2022-11-12T04:02:44.376Z,2.72
2022-11-12T04:03:15.219Z,2.72
2022-11-12T04:03:46.152Z,2.72
2022-11-12T04:04:18.219Z,2.72
2022-11-12T04:04:48.223Z,2.72
2022-11-12T04:05:19.258Z,2.72
2022-11-12T04:05:50.392Z,2.72
2022-11-12T04:06:21.227Z,2.72
2022-11-12T04:06:52.296Z,2.72
2022-11-12T04:07:23.134Z,2.72
2022-11-12T04:07:54.339Z,2.61
2022-11-12T04:08:25.859Z,2.61
2022-11-12T04:08:56.327Z,2.61
2022-11-12T04:09:27.930Z,2.61
2022-11-12T04:09:58.328Z,2.61
2022-11-12T04:10:29.387Z,2.61
2022-11-12T04:11:00.152Z,2.61
2022-11-12T04:11:31.048Z,2.61
2022-11-12T04:12:01.963Z,2.61
2022-11-12T04:12:33.314Z,2.61
2022-11-12T04:13:04.335Z,2.61
2022-11-12T04:13:35.366Z,2.61
2022-11-12T04:14:06.196Z,2.61
2022-11-12T04:14:38.201Z,2.61
2022-11-12T04:15:11.264Z,2.61
2022-11-12T04:15:39.195Z,2.61
2022-11-12T04:16:10.246Z,2.61
2022-11-12T04:16:41.340Z,2.61
2022-11-12T04:17:12.191Z,2.61
2022-11-12T04:17:43.284Z,2.61
2022-11-12T04:18:14.489Z,2.61
2022-11-12T04:18:45.333Z,2.61
2022-11-12T04:19:16.032Z,2.61
2022-11-12T04:19:48.185Z,2.61
2022-11-12T04:20:18.307Z,2.61
2022-11-12T04:20:49.195Z,2.61
2022-11-12T04:21:20.304Z,2.61
2022-11-12T04:21:51.130Z,2.61
2022-11-12T04:22:22.393Z,2.61
2022-11-12T04:22:53.253Z,2.61
2022-11-12T04:23:24.110Z,2.61
2022-11-12T04:23:55.351Z,2.61
2022-11-12T04:24:26.372Z,2.61
2022-11-12T04:24:58.085Z,2.61
2022-11-12T04:25:28.450Z,2.61
2022-11-12T04:25:59.450Z,2.61
2022-11-12T04:26:30.235Z,2.61
2022-11-12T04:27:01.060Z,2.61
2022-11-12T04:27:32.092Z,2.61
2022-11-12T04:28:03.133Z,2.61
2022-11-12T04:28:34.244Z,2.61
2022-11-12T04:29:05.338Z,2.61
2022-11-12T04:29:37.539Z,2.61
2022-11-12T04:30:41.124Z,2.61
2022-11-12T04:31:09.360Z,2.61
2022-11-12T04:31:40.371Z,2.61
2022-11-12T04:32:11.400Z,2.61
2022-11-12T04:32:42.287Z,2.61
2022-11-12T04:33:13.295Z,2.61
2022-11-12T04:33:44.404Z,2.61
2022-11-12T04:34:15.362Z,2.61
2022-11-12T04:34:46.128Z,2.61
2022-11-12T04:35:18.222Z,2.61
2022-11-12T04:35:48.187Z,2.61
2022-11-12T04:36:19.437Z,2.61
2022-11-12T04:36:50.356Z,2.61
2022-11-12T04:37:23.633Z,2.72
2022-11-12T04:37:52.091Z,2.72
2022-11-12T04:38:23.062Z,2.72
2022-11-12T04:38:54.429Z,2.72
2022-11-12T04:39:25.411Z,2.72
2022-11-12T04:39:56.405Z,2.72
2022-11-12T04:40:28.062Z,2.72
2022-11-12T04:40:58.255Z,2.72
2022-11-12T04:41:29.454Z,2.72
2022-11-12T04:42:00.312Z,2.72
2022-11-12T04:42:31.206Z,2.72
2022-11-12T04:43:02.047Z,2.72
2022-11-12T04:43:33.173Z,2.72
2022-11-12T04:44:04.366Z,2.72
2022-11-12T04:44:35.377Z,2.72
2022-11-12T04:45:09.073Z,2.72
2022-11-12T04:45:38.234Z,2.72
2022-11-12T04:46:08.475Z,2.72
2022-11-12T04:46:39.435Z,2.72
2022-11-12T04:47:10.199Z,2.72
2022-11-12T04:47:41.437Z,2.72
2022-11-12T04:48:12.414Z,2.72
2022-11-12T04:48:43.311Z,2.72
2022-11-12T04:49:14.621Z,2.72
2022-11-12T04:49:45.388Z,2.72
2022-11-12T04:50:16.138Z,2.77
2022-11-12T04:50:48.319Z,2.77
2022-11-12T04:51:18.410Z,2.77
2022-11-12T04:51:49.122Z,2.77
2022-11-12T04:52:20.363Z,2.77
2022-11-12T04:52:51.303Z,2.77
2022-11-12T04:53:22.453Z,2.77
2022-11-12T04:53:53.367Z,2.77
2022-11-12T04:54:24.231Z,2.77
2022-11-12T04:54:55.384Z,2.77
2022-11-12T04:58:01.226Z,2.77
2022-11-12T04:58:32.211Z,2.88
2022-11-12T04:59:03.182Z,2.88
2022-11-12T04:59:34.452Z,2.88
2022-11-12T05:00:08.247Z,2.88
2022-11-12T05:00:36.257Z,2.88
2022-11-12T05:01:38.384Z,2.88
2022-11-12T05:02:09.368Z,2.88
2022-11-12T05:02:40.379Z,2.88
2022-11-12T05:03:11.483Z,2.88
2022-11-12T05:03:42.307Z,2.88
2022-11-12T05:04:13.225Z,2.88
2022-11-12T05:04:44.369Z,2.88
2022-11-12T05:05:15.216Z,2.88
2022-11-12T05:05:46.161Z,2.88
2022-11-12T05:06:18.214Z,2.88
2022-11-12T05:06:48.281Z,2.88
2022-11-12T05:07:19.487Z,2.88
2022-11-12T05:07:50.150Z,3.00
2022-11-12T05:08:21.101Z,2.88
2022-11-12T05:08:52.115Z,3.00
2022-11-12T05:09:23.282Z,3.00
2022-11-12T05:09:54.304Z,3.00
2022-11-12T05:10:25.299Z,3.00
2022-11-12T05:10:56.316Z,3.00
2022-11-12T05:11:28.361Z,3.00
2022-11-12T05:11:58.533Z,3.00
2022-11-12T05:12:29.534Z,3.00
2022-11-12T05:13:00.454Z,3.00
2022-11-12T05:13:31.155Z,3.00
2022-11-12T05:14:02.157Z,3.00
2022-11-12T05:14:33.211Z,3.00
2022-11-12T05:15:06.987Z,3.00
2022-11-12T05:15:35.346Z,3.00
2022-11-12T05:16:06.245Z,3.00
2022-11-12T05:16:38.117Z,3.00
2022-11-12T05:17:08.358Z,3.00
2022-11-12T05:17:39.254Z,3.00
2022-11-12T05:18:10.482Z,3.00
2022-11-12T05:18:41.370Z,3.00
2022-11-12T05:19:12.341Z,3.00
2022-11-12T05:19:43.157Z,3.00
2022-11-12T05:20:14.418Z,3.00
2022-11-12T05:20:45.373Z,3.00
2022-11-12T05:21:16.226Z,3.00
2022-11-12T05:21:48.210Z,3.00
2022-11-12T05:22:40.687Z,3.00
2022-11-12T05:23:20.321Z,3.00
2022-11-12T05:23:51.271Z,3.00
2022-11-12T05:24:40.905Z,3.00
2022-11-12T05:24:53.301Z,3.00
2022-11-12T05:25:24.528Z,3.00
2022-11-12T05:25:55.487Z,3.00
2022-11-12T05:26:26.457Z,3.00
2022-11-12T05:26:58.153Z,3.00
2022-11-12T05:27:28.929Z,3.00
2022-11-12T05:27:59.560Z,3.00
2022-11-12T05:28:30.572Z,3.00
2022-11-12T05:29:04.956Z,3.00
2022-11-12T05:29:32.330Z,3.11
2022-11-12T05:30:06.052Z,3.11
2022-11-12T05:30:34.280Z,3.11
2022-11-12T05:31:05.327Z,3.11
2022-11-12T05:31:36.148Z,3.11
2022-11-12T05:32:38.422Z,3.11
2022-11-12T05:33:09.401Z,3.11
2022-11-12T05:33:40.425Z,3.11
2022-11-12T05:34:11.416Z,3.11
2022-11-12T05:34:42.306Z,3.00
2022-11-12T05:35:13.213Z,3.00
2022-11-12T05:35:44.085Z,3.00
2022-11-12T05:36:15.526Z,3.00
2022-11-12T05:36:46.176Z,3.00
2022-11-12T05:37:18.278Z,3.00
2022-11-12T05:37:48.374Z,3.00
2022-11-12T05:38:19.242Z,3.11
2022-11-12T05:38:50.409Z,3.11
2022-11-12T05:39:21.206Z,3.11
2022-11-12T05:39:52.385Z,3.11
2022-11-12T05:40:23.178Z,3.11
2022-11-12T05:40:54.326Z,3.11
2022-11-12T05:41:25.440Z,3.11
2022-11-12T05:42:12.474Z,3.11
2022-11-12T05:42:28.267Z,3.11
2022-11-12T05:42:58.239Z,3.11
2022-11-12T05:43:29.636Z,3.11
2022-11-12T05:44:00.412Z,3.11
2022-11-12T05:44:31.269Z,3.11
2022-11-12T05:45:05.180Z,3.11
2022-11-12T05:45:33.303Z,3.11
2022-11-12T05:46:04.313Z,3.11
2022-11-12T05:46:35.530Z,3.11
2022-11-12T05:47:06.323Z,3.11
2022-11-12T05:47:38.271Z,3.11
2022-11-12T05:48:08.496Z,3.11
2022-11-12T05:48:39.406Z,3.11
2022-11-12T05:49:10.393Z,3.22
2022-11-12T05:49:41.271Z,3.22
2022-11-12T05:50:12.412Z,3.22
2022-11-12T05:51:06.116Z,3.22
2022-11-12T05:51:45.554Z,3.11
2022-11-12T05:52:16.212Z,3.11
2022-11-12T05:52:48.333Z,3.11
2022-11-12T05:53:18.367Z,3.11
2022-11-12T05:53:49.321Z,3.11
2022-11-12T05:54:20.288Z,3.11
2022-11-12T05:54:51.321Z,3.11
2022-11-12T05:55:22.278Z,3.11
2022-11-12T05:55:53.213Z,3.11
2022-11-12T05:56:24.434Z,3.22
2022-11-12T05:56:55.394Z,3.22
2022-11-12T05:57:26.418Z,3.22
2022-11-12T05:57:58.216Z,3.22
2022-11-12T05:58:28.595Z,3.11
2022-11-12T05:58:59.109Z,3.11
2022-11-12T05:59:30.617Z,3.11
2022-11-12T06:00:04.070Z,3.11
2022-11-12T06:00:32.431Z,3.11
2022-11-12T06:01:03.273Z,3.11
2022-11-12T06:01:34.302Z,3.22
2022-11-12T06:02:05.549Z,3.22
2022-11-12T06:02:36.482Z,3.22
2022-11-12T06:03:38.231Z,3.22
2022-11-12T06:04:09.352Z,3.22
2022-11-12T06:04:40.497Z,3.11
2022-11-12T06:05:11.573Z,3.11
2022-11-12T06:05:42.456Z,3.11
2022-11-12T06:06:13.277Z,3.11
2022-11-12T06:06:44.253Z,3.11
2022-11-12T06:07:15.579Z,3.11
2022-11-12T06:07:46.231Z,3.11
2022-11-12T06:08:18.180Z,3.22
2022-11-12T06:08:48.417Z,3.22
2022-11-12T06:09:19.353Z,3.22
2022-11-12T06:09:50.462Z,3.22
2022-11-12T06:10:21.284Z,3.22
2022-11-12T06:10:52.306Z,3.22
2022-11-12T06:11:23.107Z,3.22
2022-11-12T06:11:54.434Z,3.22
2022-11-12T06:12:25.518Z,3.22
2022-11-12T06:12:56.224Z,3.22
2022-11-12T06:13:28.401Z,3.22
2022-11-12T06:13:58.388Z,3.22
2022-11-12T06:14:29.401Z,3.22
2022-11-12T06:15:03.357Z,3.22
2022-11-12T06:15:33.944Z,3.22
2022-11-12T06:16:02.280Z,3.22
2022-11-12T06:16:33.297Z,3.22
2022-11-12T06:17:04.364Z,3.22
2022-11-12T06:17:35.205Z,3.22
2022-11-12T06:18:06.263Z,3.22
2022-11-12T06:18:38.080Z,3.22
2022-11-12T06:19:10.018Z,3.22
2022-11-12T06:19:39.419Z,3.22
2022-11-12T06:20:10.409Z,3.22
2022-11-12T06:20:41.557Z,3.22
2022-11-12T06:21:12.503Z,3.22
2022-11-12T06:21:43.355Z,3.22
2022-11-12T06:22:14.192Z,3.22
2022-11-12T06:22:45.539Z,3.22
2022-11-12T06:23:16.333Z,3.22
2022-11-12T06:23:48.355Z,3.22
2022-11-12T06:24:18.241Z,3.22
2022-11-12T06:24:49.172Z,3.22
2022-11-12T06:25:20.411Z,3.22
2022-11-12T06:25:51.361Z,3.22
2022-11-12T06:26:22.400Z,3.22
2022-11-12T06:26:53.240Z,3.22
2022-11-12T06:27:24.390Z,3.22
2022-11-12T06:27:55.453Z,3.22
2022-11-12T06:28:27.032Z,3.22
2022-11-12T06:28:58.468Z,3.22
2022-11-12T06:29:28.304Z,3.22
2022-11-12T06:29:59.445Z,3.22
2022-11-12T06:30:33.513Z,3.22
2022-11-12T06:31:01.425Z,3.22
2022-11-12T06:31:32.216Z,3.22
2022-11-12T06:32:03.331Z,3.27
2022-11-12T06:32:34.450Z,3.27
2022-11-12T06:33:05.607Z,3.27
2022-11-12T06:33:36.708Z,3.27
2022-11-12T06:34:38.400Z,3.27
2022-11-12T06:35:09.550Z,3.27
2022-11-12T06:35:43.186Z,3.27
2022-11-12T06:36:11.698Z,3.27
2022-11-12T06:36:42.475Z,3.27
2022-11-12T06:37:13.581Z,3.27
2022-11-12T06:37:44.659Z,3.27
2022-11-12T06:38:15.743Z,3.27
2022-11-12T06:38:46.455Z,3.27
2022-11-12T06:39:18.549Z,3.27
2022-11-12T06:39:48.423Z,3.27
2022-11-12T06:40:19.557Z,3.27
2022-11-12T06:40:50.432Z,3.27
2022-11-12T06:41:21.609Z,3.27
2022-11-12T06:41:52.650Z,3.27
2022-11-12T06:42:23.497Z,3.27
2022-11-12T06:42:54.658Z,3.27
2022-11-12T06:43:25.747Z,3.27
2022-11-12T06:43:56.668Z,3.27
2022-11-12T06:44:28.645Z,3.27
2022-11-12T06:44:58.635Z,3.27
2022-11-12T06:45:32.244Z,3.38
2022-11-12T06:46:00.830Z,3.38
2022-11-12T06:46:31.659Z,3.38
2022-11-12T06:47:02.679Z,3.38
2022-11-12T06:47:33.565Z,3.38
2022-11-12T06:48:04.759Z,3.38
2022-11-12T06:48:35.848Z,3.38
2022-11-12T06:49:06.803Z,3.38
2022-11-12T06:49:38.627Z,3.38
2022-11-12T06:50:08.636Z,3.38
2022-11-12T06:50:39.559Z,3.50
2022-11-12T06:51:10.707Z,3.50
2022-11-12T06:51:41.892Z,3.50
2022-11-12T06:52:16.575Z,3.50
2022-11-12T06:52:43.692Z,3.50
2022-11-12T06:53:14.709Z,3.50
2022-11-12T06:53:46.042Z,3.50
2022-11-12T06:54:16.892Z,3.50
2022-11-12T06:54:48.733Z,3.50
2022-11-12T06:55:18.625Z,3.50
2022-11-12T06:55:49.814Z,3.50
2022-11-12T06:56:20.861Z,3.50
2022-11-12T06:56:51.838Z,3.50
2022-11-12T06:57:22.797Z,3.61
2022-11-12T06:57:53.671Z,3.61
2022-11-12T06:58:25.189Z,3.61
2022-11-12T06:58:55.557Z,3.61
2022-11-12T06:59:26.408Z,3.61
2022-11-12T06:59:58.689Z,3.61
2022-11-12T07:00:31.498Z,3.61
2022-11-12T07:00:59.656Z,3.61
2022-11-12T07:01:30.877Z,3.61
2022-11-12T07:02:01.814Z,3.61
2022-11-12T07:02:32.619Z,3.61
2022-11-12T07:03:03.590Z,3.61
2022-11-12T07:03:34.776Z,3.61